sensor_id;sensor_type;location;lat;lon;timestamp;pressure;altitude;pressure_sealevel;temperature;humidity
76011;BME280;64701;43.536;1.478;2023-08-24T00:00:36;99234.47;;;31.32;38.49
76011;BME280;64701;43.536;1.478;2023-08-24T00:03:02;99231.94;;;31.27;38.86
76011;BME280;64701;43.536;1.478;2023-08-24T00:05:28;99230.34;;;31.26;38.74
76011;BME280;64701;43.536;1.478;2023-08-24T00:07:53;99227.13;;;31.23;39.10
76011;BME280;64701;43.536;1.478;2023-08-24T00:10:18;99232.81;;;31.18;39.04
76011;BME280;64701;43.536;1.478;2023-08-24T00:12:43;99221.75;;;31.15;39.36
76011;BME280;64701;43.536;1.478;2023-08-24T00:15:09;99224.34;;;31.11;39.44
76011;BME280;64701;43.536;1.478;2023-08-24T00:17:35;99222.41;;;31.12;39.44
76011;BME280;64701;43.536;1.478;2023-08-24T00:20:01;99216.00;;;31.08;39.45
76011;BME280;64701;43.536;1.478;2023-08-24T00:22:29;99217.00;;;31.03;39.77
76011;BME280;64701;43.536;1.478;2023-08-24T00:24:54;99217.19;;;30.98;39.91
76011;BME280;64701;43.536;1.478;2023-08-24T00:27:20;99212.69;;;30.94;40.01
76011;BME280;64701;43.536;1.478;2023-08-24T00:29:45;99226.25;;;30.90;40.59
76011;BME280;64701;43.536;1.478;2023-08-24T00:32:10;99220.84;;;30.81;40.53
76011;BME280;64701;43.536;1.478;2023-08-24T00:34:35;99220.72;;;30.78;40.66
76011;BME280;64701;43.536;1.478;2023-08-24T00:37:01;99228.16;;;30.69;40.44
76011;BME280;64701;43.536;1.478;2023-08-24T00:39:26;99231.38;;;30.71;41.03
76011;BME280;64701;43.536;1.478;2023-08-24T00:41:52;99225.16;;;30.62;41.17
76011;BME280;64701;43.536;1.478;2023-08-24T00:44:17;99221.47;;;30.58;41.11
76011;BME280;64701;43.536;1.478;2023-08-24T00:46:42;99211.69;;;30.57;40.70
76011;BME280;64701;43.536;1.478;2023-08-24T00:49:08;99213.47;;;30.53;41.19
76011;BME280;64701;43.536;1.478;2023-08-24T00:51:33;99220.06;;;30.52;40.99
76011;BME280;64701;43.536;1.478;2023-08-24T00:53:59;99222.66;;;30.48;41.00
76011;BME280;64701;43.536;1.478;2023-08-24T00:56:24;99212.53;;;30.49;41.21
76011;BME280;64701;43.536;1.478;2023-08-24T00:58:50;99218.34;;;30.38;40.98
76011;BME280;64701;43.536;1.478;2023-08-24T01:01:16;99216.06;;;30.40;41.53
76011;BME280;64701;43.536;1.478;2023-08-24T01:03:42;99222.41;;;30.32;41.78
76011;BME280;64701;43.536;1.478;2023-08-24T01:06:07;99219.50;;;30.29;41.57
76011;BME280;64701;43.536;1.478;2023-08-24T01:08:32;99218.59;;;30.25;41.55
76011;BME280;64701;43.536;1.478;2023-08-24T01:13:42;99213.66;;;30.10;41.99
76011;BME280;64701;43.536;1.478;2023-08-24T01:16:13;99210.78;;;30.06;41.78
76011;BME280;64701;43.536;1.478;2023-08-24T01:18:39;99208.88;;;29.98;42.07
76011;BME280;64701;43.536;1.478;2023-08-24T01:21:07;99205.69;;;29.96;42.08
76011;BME280;64701;43.536;1.478;2023-08-24T01:23:35;99209.88;;;29.93;42.32
76011;BME280;64701;43.536;1.478;2023-08-24T01:26:06;99207.63;;;29.87;42.47
76011;BME280;64701;43.536;1.478;2023-08-24T01:28:32;99203.63;;;29.84;42.48
76011;BME280;64701;43.536;1.478;2023-08-24T01:30:57;99203.00;;;29.79;42.43
76011;BME280;64701;43.536;1.478;2023-08-24T01:33:23;99196.38;;;29.80;42.43
76011;BME280;64701;43.536;1.478;2023-08-24T01:35:49;99190.94;;;29.80;42.18
76011;BME280;64701;43.536;1.478;2023-08-24T01:38:14;99196.75;;;29.70;42.78
76011;BME280;64701;43.536;1.478;2023-08-24T01:43:18;99188.75;;;29.65;43.04
76011;BME280;64701;43.536;1.478;2023-08-24T01:45:44;99188.59;;;29.61;43.37
76011;BME280;64701;43.536;1.478;2023-08-24T01:48:09;99193.41;;;29.64;43.07
76011;BME280;64701;43.536;1.478;2023-08-24T01:50:35;99181.34;;;29.65;42.73
76011;BME280;64701;43.536;1.478;2023-08-24T01:53:01;99194.19;;;29.65;42.90
76011;BME280;64701;43.536;1.478;2023-08-24T01:55:27;99190.19;;;29.62;43.03
76011;BME280;64701;43.536;1.478;2023-08-24T01:57:52;99188.59;;;29.61;43.03
76011;BME280;64701;43.536;1.478;2023-08-24T02:00:18;99186.19;;;29.59;42.84
76011;BME280;64701;43.536;1.478;2023-08-24T02:02:43;99187.44;;;29.62;43.03
76011;BME280;64701;43.536;1.478;2023-08-24T02:05:09;99187.00;;;29.60;43.13
76011;BME280;64701;43.536;1.478;2023-08-24T02:07:34;99184.75;;;29.53;43.11
76011;BME280;64701;43.536;1.478;2023-08-24T02:09:59;99180.56;;;29.56;43.13
76011;BME280;64701;43.536;1.478;2023-08-24T02:12:25;99175.91;;;29.56;43.03
76011;BME280;64701;43.536;1.478;2023-08-24T02:14:50;99175.91;;;29.56;42.69
76011;BME280;64701;43.536;1.478;2023-08-24T02:17:15;99178.19;;;29.54;43.11
76011;BME280;64701;43.536;1.478;2023-08-24T02:19:40;99172.09;;;29.49;43.41
76011;BME280;64701;43.536;1.478;2023-08-24T02:22:06;99172.25;;;29.52;42.99
76011;BME280;64701;43.536;1.478;2023-08-24T02:24:32;99173.38;;;29.51;43.28
76011;BME280;64701;43.536;1.478;2023-08-24T02:26:57;99172.72;;;29.46;43.25
76011;BME280;64701;43.536;1.478;2023-08-24T02:29:22;99173.41;;;29.43;43.49
76011;BME280;64701;43.536;1.478;2023-08-24T02:31:49;99168.41;;;29.45;43.63
76011;BME280;64701;43.536;1.478;2023-08-24T02:34:14;99165.66;;;29.45;43.52
76011;BME280;64701;43.536;1.478;2023-08-24T02:36:39;99175.78;;;29.44;43.78
76011;BME280;64701;43.536;1.478;2023-08-24T02:39:04;99156.22;;;29.42;43.66
76011;BME280;64701;43.536;1.478;2023-08-24T02:41:30;99158.78;;;29.47;43.97
76011;BME280;64701;43.536;1.478;2023-08-24T02:43:55;99164.88;;;29.44;43.80
76011;BME280;64701;43.536;1.478;2023-08-24T02:46:20;99153.16;;;29.44;43.82
76011;BME280;64701;43.536;1.478;2023-08-24T02:48:46;99149.47;;;29.40;44.13
76011;BME280;64701;43.536;1.478;2023-08-24T02:51:11;99144.50;;;29.33;44.26
76011;BME280;64701;43.536;1.478;2023-08-24T02:53:37;99142.88;;;29.32;44.00
76011;BME280;64701;43.536;1.478;2023-08-24T02:56:02;99140.31;;;29.27;44.56
76011;BME280;64701;43.536;1.478;2023-08-24T02:58:28;99142.44;;;29.21;44.58
76011;BME280;64701;43.536;1.478;2023-08-24T03:00:54;99143.22;;;29.22;44.64
76011;BME280;64701;43.536;1.478;2023-08-24T03:03:19;99135.72;;;29.19;44.34
76011;BME280;64701;43.536;1.478;2023-08-24T03:05:57;99139.56;;;29.18;44.69
76011;BME280;64701;43.536;1.478;2023-08-24T03:08:24;99133.78;;;29.11;44.96
76011;BME280;64701;43.536;1.478;2023-08-24T03:10:49;99131.41;;;29.01;45.88
76011;BME280;64701;43.536;1.478;2023-08-24T03:13:14;99128.69;;;29.01;45.49
76011;BME280;64701;43.536;1.478;2023-08-24T03:15:40;99138.16;;;28.95;45.91
76011;BME280;64701;43.536;1.478;2023-08-24T03:18:05;99136.22;;;28.87;46.06
76011;BME280;64701;43.536;1.478;2023-08-24T03:20:30;99138.44;;;28.85;46.49
76011;BME280;64701;43.536;1.478;2023-08-24T03:22:56;99139.25;;;28.85;46.39
76011;BME280;64701;43.536;1.478;2023-08-24T03:25:22;99152.41;;;28.74;46.86
76011;BME280;64701;43.536;1.478;2023-08-24T03:27:48;99140.97;;;28.72;46.63
76011;BME280;64701;43.536;1.478;2023-08-24T03:30:13;99145.66;;;28.72;46.99
76011;BME280;64701;43.536;1.478;2023-08-24T03:32:39;99154.16;;;28.70;46.99
76011;BME280;64701;43.536;1.478;2023-08-24T03:35:05;99145.47;;;28.68;47.15
76011;BME280;64701;43.536;1.478;2023-08-24T03:37:30;99153.00;;;28.63;47.58
76011;BME280;64701;43.536;1.478;2023-08-24T03:39:55;99143.88;;;28.67;47.22
76011;BME280;64701;43.536;1.478;2023-08-24T03:42:21;99145.00;;;28.58;47.75
76011;BME280;64701;43.536;1.478;2023-08-24T03:44:46;99143.53;;;28.60;47.33
76011;BME280;64701;43.536;1.478;2023-08-24T03:47:11;99147.69;;;28.49;48.11
76011;BME280;64701;43.536;1.478;2023-08-24T03:49:36;99147.06;;;28.52;48.29
76011;BME280;64701;43.536;1.478;2023-08-24T03:52:02;99149.97;;;28.47;48.27
76011;BME280;64701;43.536;1.478;2023-08-24T03:54:28;99151.56;;;28.48;48.39
76011;BME280;64701;43.536;1.478;2023-08-24T03:56:53;99138.25;;;28.47;48.33
76011;BME280;64701;43.536;1.478;2023-08-24T03:59:18;99139.22;;;28.51;47.83
76011;BME280;64701;43.536;1.478;2023-08-24T04:01:44;99144.66;;;28.51;48.39
76011;BME280;64701;43.536;1.478;2023-08-24T04:04:09;99140.34;;;28.41;48.70
76011;BME280;64701;43.536;1.478;2023-08-24T04:06:34;99140.34;;;28.41;48.90
76011;BME280;64701;43.536;1.478;2023-08-24T04:08:59;99136.00;;;28.40;48.41
76011;BME280;64701;43.536;1.478;2023-08-24T04:11:25;99134.88;;;28.41;48.81
76011;BME280;64701;43.536;1.478;2023-08-24T04:13:50;99141.94;;;28.42;48.63
76011;BME280;64701;43.536;1.478;2023-08-24T04:16:15;99135.19;;;28.39;48.92
76011;BME280;64701;43.536;1.478;2023-08-24T04:18:41;99136.97;;;28.35;49.16
76011;BME280;64701;43.536;1.478;2023-08-24T04:21:06;99128.13;;;28.30;49.58
76011;BME280;64701;43.536;1.478;2023-08-24T04:23:31;99128.75;;;28.27;49.52
76011;BME280;64701;43.536;1.478;2023-08-24T04:25:56;99131.00;;;28.25;49.26
76011;BME280;64701;43.536;1.478;2023-08-24T04:28:23;99128.13;;;28.30;49.53
76011;BME280;64701;43.536;1.478;2023-08-24T04:30:50;99132.28;;;28.27;49.67
76011;BME280;64701;43.536;1.478;2023-08-24T04:33:16;99131.47;;;28.18;50.39
76011;BME280;64701;43.536;1.478;2023-08-24T04:35:41;99129.06;;;28.17;50.87
76011;BME280;64701;43.536;1.478;2023-08-24T04:38:07;99125.53;;;28.16;50.73
76011;BME280;64701;43.536;1.478;2023-08-24T04:40:47;99129.88;;;28.17;50.60
76011;BME280;64701;43.536;1.478;2023-08-24T04:43:13;99131.28;;;28.15;50.55
76011;BME280;64701;43.536;1.478;2023-08-24T04:45:39;99131.59;;;28.13;51.14
76011;BME280;64701;43.536;1.478;2023-08-24T04:48:04;99128.69;;;28.10;51.20
76011;BME280;64701;43.536;1.478;2023-08-24T04:50:29;99127.59;;;28.11;50.67
76011;BME280;64701;43.536;1.478;2023-08-24T04:52:55;99130.00;;;28.12;51.13
76011;BME280;64701;43.536;1.478;2023-08-24T04:55:20;99132.38;;;28.05;51.91
76011;BME280;64701;43.536;1.478;2023-08-24T04:57:45;99133.19;;;28.06;51.92
76011;BME280;64701;43.536;1.478;2023-08-24T05:00:11;99136.03;;;28.00;51.87
76011;BME280;64701;43.536;1.478;2023-08-24T05:02:41;99129.97;;;28.03;52.06
76011;BME280;64701;43.536;1.478;2023-08-24T05:05:06;99130.44;;;28.06;51.65
76011;BME280;64701;43.536;1.478;2023-08-24T05:07:32;99126.28;;;27.99;52.56
76011;BME280;64701;43.536;1.478;2023-08-24T05:09:57;99132.19;;;28.01;51.57
76011;BME280;64701;43.536;1.478;2023-08-24T05:12:23;99137.63;;;28.01;51.78
76011;BME280;64701;43.536;1.478;2023-08-24T05:14:48;99133.78;;;28.02;51.43
76011;BME280;64701;43.536;1.478;2023-08-24T05:17:13;99139.53;;;27.92;52.01
76011;BME280;64701;43.536;1.478;2023-08-24T05:19:38;99140.50;;;27.96;51.44
76011;BME280;64701;43.536;1.478;2023-08-24T05:22:04;99137.31;;;27.94;52.26
76011;BME280;64701;43.536;1.478;2023-08-24T05:24:29;99141.16;;;27.93;51.85
76011;BME280;64701;43.536;1.478;2023-08-24T05:26:54;99152.63;;;27.90;52.71
76011;BME280;64701;43.536;1.478;2023-08-24T05:29:19;99145.13;;;27.87;52.28
76011;BME280;64701;43.536;1.478;2023-08-24T05:31:45;99151.03;;;27.89;52.71
76011;BME280;64701;43.536;1.478;2023-08-24T05:34:10;99149.44;;;27.88;52.73
76011;BME280;64701;43.536;1.478;2023-08-24T05:36:35;99151.47;;;27.83;52.61
76011;BME280;64701;43.536;1.478;2023-08-24T05:39:00;99152.94;;;27.80;52.52
76011;BME280;64701;43.536;1.478;2023-08-24T05:41:26;99158.22;;;27.85;52.75
76011;BME280;64701;43.536;1.478;2023-08-24T05:43:51;99154.03;;;27.79;52.74
76011;BME280;64701;43.536;1.478;2023-08-24T05:46:18;99161.84;;;27.72;53.20
76011;BME280;64701;43.536;1.478;2023-08-24T05:48:43;99156.41;;;27.72;52.84
76011;BME280;64701;43.536;1.478;2023-08-24T05:51:08;99157.22;;;27.73;53.20
76011;BME280;64701;43.536;1.478;2023-08-24T05:53:35;99158.81;;;27.74;52.79
76011;BME280;64701;43.536;1.478;2023-08-24T05:56:00;99158.00;;;27.73;53.49
76011;BME280;64701;43.536;1.478;2023-08-24T05:58:25;99153.38;;;27.74;53.56
76011;BME280;64701;43.536;1.478;2023-08-24T06:00:59;99154.78;;;27.71;53.11
76011;BME280;64701;43.536;1.478;2023-08-24T06:03:25;99163.47;;;27.73;53.48
76011;BME280;64701;43.536;1.478;2023-08-24T06:05:51;99162.47;;;27.69;54.02
76011;BME280;64701;43.536;1.478;2023-08-24T06:08:16;99164.19;;;27.65;54.44
76011;BME280;64701;43.536;1.478;2023-08-24T06:10:41;99157.41;;;27.76;54.24
76011;BME280;64701;43.536;1.478;2023-08-24T06:13:06;99162.50;;;27.78;54.05
76011;BME280;64701;43.536;1.478;2023-08-24T06:15:32;99157.88;;;27.78;53.85
76011;BME280;64701;43.536;1.478;2023-08-24T06:17:57;99160.22;;;27.71;54.85
76011;BME280;64701;43.536;1.478;2023-08-24T06:20:24;99165.09;;;27.83;54.16
76011;BME280;64701;43.536;1.478;2023-08-24T06:22:49;99161.75;;;27.86;54.83
76011;BME280;64701;43.536;1.478;2023-08-24T06:25:15;99165.78;;;27.88;55.11
76011;BME280;64701;43.536;1.478;2023-08-24T06:27:40;99166.25;;;27.90;54.87
76011;BME280;64701;43.536;1.478;2023-08-24T06:30:06;99162.28;;;27.96;54.17
76011;BME280;64701;43.536;1.478;2023-08-24T06:32:32;99163.22;;;28.00;55.43
76011;BME280;64701;43.536;1.478;2023-08-24T06:34:57;99161.50;;;28.05;55.34
76011;BME280;64701;43.536;1.478;2023-08-24T06:37:22;99161.34;;;28.10;54.81
76011;BME280;64701;43.536;1.478;2023-08-24T06:39:48;99157.34;;;28.07;55.29
76011;BME280;64701;43.536;1.478;2023-08-24T06:42:13;99155.28;;;28.13;54.88
76011;BME280;64701;43.536;1.478;2023-08-24T06:44:38;99146.22;;;28.17;55.15
76011;BME280;64701;43.536;1.478;2023-08-24T06:47:03;99155.50;;;28.16;55.14
76011;BME280;64701;43.536;1.478;2023-08-24T06:49:29;99161.59;;;28.22;54.95
76011;BME280;64701;43.536;1.478;2023-08-24T06:51:54;99165.28;;;28.26;54.82
76011;BME280;64701;43.536;1.478;2023-08-24T06:54:20;99167.53;;;28.24;55.09
76011;BME280;64701;43.536;1.478;2023-08-24T06:56:45;99155.84;;;28.32;54.35
76011;BME280;64701;43.536;1.478;2023-08-24T06:59:10;99154.88;;;28.36;54.92
76011;BME280;64701;43.536;1.478;2023-08-24T07:01:38;99155.22;;;28.43;54.46
76011;BME280;64701;43.536;1.478;2023-08-24T07:04:03;99160.50;;;28.49;54.21
76011;BME280;64701;43.536;1.478;2023-08-24T07:06:28;99163.41;;;28.52;53.76
76011;BME280;64701;43.536;1.478;2023-08-24T07:08:54;99157.81;;;28.57;53.42
76011;BME280;64701;43.536;1.478;2023-08-24T07:11:19;99160.38;;;28.62;53.43
76011;BME280;64701;43.536;1.478;2023-08-24T07:13:45;99167.44;;;28.63;53.12
76011;BME280;64701;43.536;1.478;2023-08-24T07:16:11;99166.78;;;28.66;52.96
76011;BME280;64701;43.536;1.478;2023-08-24T07:18:36;99167.78;;;28.79;52.83
76011;BME280;64701;43.536;1.478;2023-08-24T07:21:01;99173.41;;;28.83;52.66
76011;BME280;64701;43.536;1.478;2023-08-24T07:23:27;99167.97;;;28.83;52.21
76011;BME280;64701;43.536;1.478;2023-08-24T07:25:52;99166.53;;;28.94;51.86
76011;BME280;64701;43.536;1.478;2023-08-24T07:28:17;99168.59;;;28.97;51.70
76011;BME280;64701;43.536;1.478;2023-08-24T07:30:43;99176.63;;;29.02;51.08
76011;BME280;64701;43.536;1.478;2023-08-24T07:33:08;99167.31;;;29.03;51.31
76011;BME280;64701;43.536;1.478;2023-08-24T07:35:33;99169.06;;;29.16;51.10
76011;BME280;64701;43.536;1.478;2023-08-24T07:37:59;99160.72;;;29.21;50.36
76011;BME280;64701;43.536;1.478;2023-08-24T07:40:25;99165.84;;;29.22;50.03
76011;BME280;64701;43.536;1.478;2023-08-24T07:42:51;99153.78;;;29.32;50.11
76011;BME280;64701;43.536;1.478;2023-08-24T07:45:19;99151.25;;;29.36;49.63
76011;BME280;64701;43.536;1.478;2023-08-24T07:47:45;99151.72;;;29.46;49.61
76011;BME280;64701;43.536;1.478;2023-08-24T07:50:10;99151.84;;;29.50;49.37
76011;BME280;64701;43.536;1.478;2023-08-24T07:52:37;99131.97;;;29.49;49.23
76011;BME280;64701;43.536;1.478;2023-08-24T07:55:02;99141.41;;;29.60;49.30
76011;BME280;64701;43.536;1.478;2023-08-24T07:57:29;99136.38;;;29.71;48.83
76011;BME280;64701;43.536;1.478;2023-08-24T07:59:54;99140.84;;;29.76;48.59
76011;BME280;64701;43.536;1.478;2023-08-24T08:02:20;99143.88;;;29.83;48.14
76011;BME280;64701;43.536;1.478;2023-08-24T08:04:45;99149.16;;;29.88;47.65
76011;BME280;64701;43.536;1.478;2023-08-24T08:07:11;99145.94;;;29.94;47.77
76011;BME280;64701;43.536;1.478;2023-08-24T08:09:36;99147.69;;;29.99;47.27
76011;BME280;64701;43.536;1.478;2023-08-24T08:12:02;99141.41;;;30.07;47.06
76011;BME280;64701;43.536;1.478;2023-08-24T08:14:28;99150.00;;;30.18;46.24
76011;BME280;64701;43.536;1.478;2023-08-24T08:16:53;99149.97;;;30.26;46.55
76011;BME280;64701;43.536;1.478;2023-08-24T08:19:19;99158.09;;;30.35;46.42
76011;BME280;64701;43.536;1.478;2023-08-24T08:21:46;99150.50;;;30.40;45.38
76011;BME280;64701;43.536;1.478;2023-08-24T08:24:11;99148.88;;;30.48;45.56
76011;BME280;64701;43.536;1.478;2023-08-24T08:26:37;99140.63;;;30.57;45.04
76011;BME280;64701;43.536;1.478;2023-08-24T08:29:03;99145.22;;;30.65;44.98
76011;BME280;64701;43.536;1.478;2023-08-24T08:31:28;99150.97;;;30.72;45.12
76011;BME280;64701;43.536;1.478;2023-08-24T08:33:53;99154.28;;;30.77;44.60
76011;BME280;64701;43.536;1.478;2023-08-24T08:36:19;99150.69;;;30.86;44.52
76011;BME280;64701;43.536;1.478;2023-08-24T08:38:44;99164.50;;;30.89;44.21
76011;BME280;64701;43.536;1.478;2023-08-24T08:41:09;99161.09;;;30.92;44.16
76011;BME280;64701;43.536;1.478;2023-08-24T08:43:35;99149.09;;;31.05;44.42
76011;BME280;64701;43.536;1.478;2023-08-24T08:46:03;99164.63;;;31.13;43.87
76011;BME280;64701;43.536;1.478;2023-08-24T08:48:30;99154.16;;;31.15;43.80
76011;BME280;64701;43.536;1.478;2023-08-24T08:50:57;99147.34;;;31.21;43.48
76011;BME280;64701;43.536;1.478;2023-08-24T08:53:22;99144.97;;;31.32;43.68
76011;BME280;64701;43.536;1.478;2023-08-24T08:55:49;99147.81;;;31.36;43.40
76011;BME280;64701;43.536;1.478;2023-08-24T08:58:16;99135.09;;;31.40;42.80
76011;BME280;64701;43.536;1.478;2023-08-24T09:00:41;99141.34;;;31.52;43.43
76011;BME280;64701;43.536;1.478;2023-08-24T09:03:07;99144.69;;;31.58;42.76
76011;BME280;64701;43.536;1.478;2023-08-24T09:05:33;99148.38;;;31.62;42.35
76011;BME280;64701;43.536;1.478;2023-08-24T09:08:02;99148.16;;;31.67;42.65
76011;BME280;64701;43.536;1.478;2023-08-24T09:10:29;99140.63;;;31.76;42.64
76011;BME280;64701;43.536;1.478;2023-08-24T09:12:54;99142.47;;;31.84;42.76
76011;BME280;64701;43.536;1.478;2023-08-24T09:15:26;99137.09;;;32.00;43.17
76011;BME280;64701;43.536;1.478;2023-08-24T09:17:54;99135.66;;;32.15;43.03
76011;BME280;64701;43.536;1.478;2023-08-24T09:20:21;99135.31;;;32.28;42.60
76011;BME280;64701;43.536;1.478;2023-08-24T09:22:46;99143.63;;;32.32;42.14
76011;BME280;64701;43.536;1.478;2023-08-24T09:25:11;99133.78;;;32.43;42.17
76011;BME280;64701;43.536;1.478;2023-08-24T09:27:37;99132.84;;;32.51;42.28
76011;BME280;64701;43.536;1.478;2023-08-24T09:30:02;99134.91;;;32.54;41.17
76011;BME280;64701;43.536;1.478;2023-08-24T09:32:28;99130.88;;;32.64;41.25
76011;BME280;64701;43.536;1.478;2023-08-24T09:34:54;99123.69;;;32.71;40.79
76011;BME280;64701;43.536;1.478;2023-08-24T09:37:19;99140.09;;;32.83;40.76
76011;BME280;64701;43.536;1.478;2023-08-24T09:39:45;99142.09;;;32.99;41.33
76011;BME280;64701;43.536;1.478;2023-08-24T09:42:10;99141.59;;;33.09;40.85
76011;BME280;64701;43.536;1.478;2023-08-24T09:44:35;99140.66;;;33.17;40.04
76011;BME280;64701;43.536;1.478;2023-08-24T09:47:01;99140.28;;;33.31;40.21
76011;BME280;64701;43.536;1.478;2023-08-24T09:49:27;99151.53;;;33.41;39.57
76011;BME280;64701;43.536;1.478;2023-08-24T09:51:55;99145.59;;;33.55;39.65
76011;BME280;64701;43.536;1.478;2023-08-24T09:54:21;99157.84;;;33.57;39.09
76011;BME280;64701;43.536;1.478;2023-08-24T09:56:48;99146.50;;;33.59;39.13
76011;BME280;64701;43.536;1.478;2023-08-24T09:59:16;99135.53;;;33.75;40.13
76011;BME280;64701;43.536;1.478;2023-08-24T10:01:47;99138.03;;;33.80;38.52
76011;BME280;64701;43.536;1.478;2023-08-24T10:04:14;99138.38;;;33.94;38.64
76011;BME280;64701;43.536;1.478;2023-08-24T10:06:39;99135.00;;;34.00;39.24
76011;BME280;64701;43.536;1.478;2023-08-24T10:09:09;99143.50;;;34.11;38.81
76011;BME280;64701;43.536;1.478;2023-08-24T10:11:38;99136.56;;;34.17;38.29
76011;BME280;64701;43.536;1.478;2023-08-24T10:16:33;99130.72;;;34.34;37.91
76011;BME280;64701;43.536;1.478;2023-08-24T10:19:00;99132.88;;;34.45;37.46
76011;BME280;64701;43.536;1.478;2023-08-24T10:21:27;99131.19;;;34.56;37.67
76011;BME280;64701;43.536;1.478;2023-08-24T10:23:53;99135.38;;;34.69;37.29
76011;BME280;64701;43.536;1.478;2023-08-24T10:26:19;99127.31;;;34.76;37.44
76011;BME280;64701;43.536;1.478;2023-08-24T10:28:46;99132.75;;;34.92;37.26
76011;BME280;64701;43.536;1.478;2023-08-24T10:31:11;99130.88;;;34.96;36.68
76011;BME280;64701;43.536;1.478;2023-08-24T10:33:37;99132.38;;;35.12;37.63
76011;BME280;64701;43.536;1.478;2023-08-24T10:36:06;99134.19;;;35.24;37.40
76011;BME280;64701;43.536;1.478;2023-08-24T10:38:33;99132.06;;;35.37;36.72
76011;BME280;64701;43.536;1.478;2023-08-24T10:41:02;99130.28;;;35.48;36.54
76011;BME280;64701;43.536;1.478;2023-08-24T10:43:36;99121.72;;;35.53;36.40
76011;BME280;64701;43.536;1.478;2023-08-24T10:46:02;99122.59;;;35.57;37.06
76011;BME280;64701;43.536;1.478;2023-08-24T10:48:56;99127.94;;;35.69;35.20
76011;BME280;64701;43.536;1.478;2023-08-24T10:51:23;99120.53;;;35.73;35.34
76011;BME280;64701;43.536;1.478;2023-08-24T10:53:58;99122.53;;;35.76;35.12
76011;BME280;64701;43.536;1.478;2023-08-24T10:56:32;99125.84;;;35.85;35.27
76011;BME280;64701;43.536;1.478;2023-08-24T10:59:10;99122.81;;;35.94;35.58
76011;BME280;64701;43.536;1.478;2023-08-24T11:01:41;99124.28;;;36.11;35.86
76011;BME280;64701;43.536;1.478;2023-08-24T11:04:06;99130.38;;;36.23;36.34
76011;BME280;64701;43.536;1.478;2023-08-24T11:06:33;99124.97;;;36.30;36.02
76011;BME280;64701;43.536;1.478;2023-08-24T11:09:08;99122.06;;;36.46;34.54
76011;BME280;64701;43.536;1.478;2023-08-24T11:11:38;99119.16;;;36.65;34.45
76011;BME280;64701;43.536;1.478;2023-08-24T11:14:13;99116.16;;;36.77;34.77
76011;BME280;64701;43.536;1.478;2023-08-24T11:16:43;99113.16;;;36.90;34.90
76011;BME280;64701;43.536;1.478;2023-08-24T11:19:11;99113.75;;;37.06;34.37
76011;BME280;64701;43.536;1.478;2023-08-24T11:21:38;99112.38;;;37.23;33.99
76011;BME280;64701;43.536;1.478;2023-08-24T11:24:03;99106.22;;;37.40;34.54
76011;BME280;64701;43.536;1.478;2023-08-24T11:26:29;99109.44;;;37.49;32.89
76011;BME280;64701;43.536;1.478;2023-08-24T11:28:56;99106.34;;;37.54;33.64
76011;BME280;64701;43.536;1.478;2023-08-24T11:31:23;99102.19;;;37.71;33.67
76011;BME280;64701;43.536;1.478;2023-08-24T11:33:48;99097.16;;;37.83;32.86
76011;BME280;64701;43.536;1.478;2023-08-24T11:36:19;99099.56;;;37.92;32.74
76011;BME280;64701;43.536;1.478;2023-08-24T11:38:44;99097.59;;;37.92;32.34
76011;BME280;64701;43.536;1.478;2023-08-24T11:41:18;99089.84;;;38.12;32.52
76011;BME280;64701;43.536;1.478;2023-08-24T11:43:45;99092.31;;;38.28;31.93
76011;BME280;64701;43.536;1.478;2023-08-24T11:46:11;99089.22;;;38.36;32.26
76011;BME280;64701;43.536;1.478;2023-08-24T11:48:37;99094.81;;;38.51;31.51
76011;BME280;64701;43.536;1.478;2023-08-24T11:51:06;99088.56;;;38.68;31.70
76011;BME280;64701;43.536;1.478;2023-08-24T11:53:32;99087.81;;;38.71;31.44
76011;BME280;64701;43.536;1.478;2023-08-24T11:56:02;99078.34;;;38.86;31.78
76011;BME280;64701;43.536;1.478;2023-08-24T11:58:27;99083.16;;;39.03;31.16
76011;BME280;64701;43.536;1.478;2023-08-24T12:00:52;99076.88;;;39.21;30.96
76011;BME280;64701;43.536;1.478;2023-08-24T12:03:18;99080.09;;;39.37;30.63
76011;BME280;64701;43.536;1.478;2023-08-24T12:05:43;99080.09;;;39.37;30.31
76011;BME280;64701;43.536;1.478;2023-08-24T12:08:10;99077.72;;;39.60;31.03
76011;BME280;64701;43.536;1.478;2023-08-24T12:10:40;99072.97;;;39.89;30.00
76011;BME280;64701;43.536;1.478;2023-08-24T12:13:06;99072.91;;;40.14;29.56
76011;BME280;64701;43.536;1.478;2023-08-24T12:15:35;99079.59;;;40.41;28.79
76011;BME280;64701;43.536;1.478;2023-08-24T12:18:11;99079.91;;;40.61;28.42
76011;BME280;64701;43.536;1.478;2023-08-24T12:20:36;99077.88;;;40.79;27.75
76011;BME280;64701;43.536;1.478;2023-08-24T12:23:02;99075.84;;;40.87;26.22
76011;BME280;64701;43.536;1.478;2023-08-24T12:25:27;99074.09;;;41.14;27.64
76011;BME280;64701;43.536;1.478;2023-08-24T12:27:53;99072.34;;;41.38;27.63
76011;BME280;64701;43.536;1.478;2023-08-24T12:30:33;99072.22;;;41.55;28.41
76011;BME280;64701;43.536;1.478;2023-08-24T12:33:07;99067.19;;;41.88;26.40
76011;BME280;64701;43.536;1.478;2023-08-24T12:35:33;99065.22;;;42.22;25.83
76011;BME280;64701;43.536;1.478;2023-08-24T12:37:58;99070.22;;;42.42;26.42
76011;BME280;64701;43.536;1.478;2023-08-24T12:40:23;99064.25;;;42.73;23.80
76011;BME280;64701;43.536;1.478;2023-08-24T12:42:50;99069.66;;;43.14;24.87
76011;BME280;64701;43.536;1.478;2023-08-24T12:45:15;99068.72;;;43.48;24.27
76011;BME280;64701;43.536;1.478;2023-08-24T12:47:40;99073.03;;;43.76;23.22
76011;BME280;64701;43.536;1.478;2023-08-24T12:50:06;99064.69;;;44.19;24.66
76011;BME280;64701;43.536;1.478;2023-08-24T12:52:32;99059.53;;;44.77;23.38
76011;BME280;64701;43.536;1.478;2023-08-24T12:54:57;99054.47;;;45.40;22.74
76011;BME280;64701;43.536;1.478;2023-08-24T12:57:22;99050.69;;;45.79;22.31
76011;BME280;64701;43.536;1.478;2023-08-24T12:59:49;99049.59;;;45.44;19.10
76011;BME280;64701;43.536;1.478;2023-08-24T13:02:14;99041.28;;;45.57;19.43